createdAt,value
2018-09-02T00:00:59.572Z,0.00
2018-09-02T00:02:05.924Z,0.00
2018-09-02T00:03:12.281Z,0.00
2018-09-02T00:04:18.636Z,0.00
2018-09-02T00:05:24.993Z,0.00
2018-09-02T00:06:31.840Z,0.00
2018-09-02T00:07:37.703Z,0.00
2018-09-02T00:08:44.052Z,0.00
2018-09-02T00:09:50.412Z,0.00
2018-09-02T00:10:57.273Z,0.00
2018-09-02T00:12:03.619Z,0.00
2018-09-02T00:13:09.468Z,0.00
2018-09-02T00:14:15.816Z,0.00
2018-09-02T00:15:22.169Z,0.00
2018-09-02T00:16:28.529Z,0.00
2018-09-02T00:17:35.376Z,0.00
2018-09-02T00:18:41.225Z,0.00
2018-09-02T00:19:48.088Z,0.00
2018-09-02T00:20:53.947Z,0.00
2018-09-02T00:22:00.309Z,0.00
2018-09-02T00:23:06.648Z,0.00
2018-09-02T00:24:14.001Z,0.00
2018-09-02T00:25:20.355Z,0.00
2018-09-02T00:26:25.713Z,0.00
2018-09-02T00:27:32.068Z,0.00
2018-09-02T00:28:38.410Z,0.00
2018-09-02T00:29:45.764Z,0.00
2018-09-02T00:30:51.115Z,0.00
2018-09-02T00:31:57.972Z,0.00
2018-09-02T00:33:03.886Z,0.00
2018-09-02T00:34:10.167Z,0.00
2018-09-02T00:35:16.519Z,0.00
2018-09-02T00:36:22.883Z,0.00
2018-09-02T00:37:29.241Z,0.00
2018-09-02T00:38:36.075Z,0.00
2018-09-02T00:39:41.940Z,0.00
2018-09-02T00:40:48.785Z,0.00
2018-09-02T00:41:54.652Z,0.00
2018-09-02T00:43:01.013Z,0.00
2018-09-02T00:44:07.360Z,0.00
2018-09-02T00:45:13.698Z,0.00
2018-09-02T00:46:20.054Z,0.00
2018-09-02T00:47:26.416Z,0.00
2018-09-02T00:48:32.767Z,0.00
2018-09-02T00:49:39.113Z,0.00
2018-09-02T00:50:45.962Z,0.00
2018-09-02T00:51:51.824Z,0.00
2018-09-02T00:52:58.180Z,0.00
2018-09-02T00:54:04.532Z,0.00
2018-09-02T00:55:10.882Z,0.00
2018-09-02T00:56:17.229Z,0.00
2018-09-02T00:57:23.585Z,0.00
2018-09-02T00:58:29.945Z,0.00
2018-09-02T00:59:36.301Z,0.00
2018-09-02T01:00:42.643Z,0.00
2018-09-02T01:01:48.999Z,0.00
2018-09-02T01:02:55.359Z,0.00
2018-09-02T01:04:01.710Z,0.00
2018-09-02T01:05:08.556Z,0.00
2018-09-02T01:06:14.414Z,0.00
2018-09-02T01:07:20.770Z,0.00
2018-09-02T01:08:27.126Z,0.00
2018-09-02T01:09:33.475Z,0.00
2018-09-02T01:10:39.832Z,0.00
2018-09-02T01:11:46.183Z,0.00
2018-09-02T01:12:52.550Z,0.00
2018-09-02T01:13:59.387Z,0.00
2018-09-02T01:15:05.738Z,0.00
2018-09-02T01:16:11.596Z,0.00
2018-09-02T01:17:17.947Z,0.00
2018-09-02T01:18:24.309Z,0.00
2018-09-02T01:19:30.657Z,0.00
2018-09-02T01:20:37.009Z,0.00
2018-09-02T01:21:43.368Z,0.00
2018-09-02T01:22:49.788Z,0.00
2018-09-02T01:23:56.556Z,0.00
2018-09-02T01:25:02.616Z,0.00
2018-09-02T01:26:08.792Z,0.00
2018-09-02T01:27:15.139Z,0.00
2018-09-02T01:28:21.495Z,0.00
2018-09-02T01:29:27.867Z,0.00
2018-09-02T01:30:34.204Z,0.00
2018-09-02T01:31:40.548Z,0.00
2018-09-02T01:32:47.400Z,0.00
2018-09-02T01:33:53.756Z,0.00
2018-09-02T01:35:00.104Z,0.00
2018-09-02T01:36:05.956Z,0.00
2018-09-02T01:37:12.312Z,0.00
2018-09-02T01:38:18.666Z,0.00
2018-09-02T01:39:25.018Z,0.00
2018-09-02T01:40:31.367Z,0.00
2018-09-02T01:41:37.718Z,0.00
2018-09-02T01:42:44.600Z,0.00
2018-09-02T01:43:50.931Z,0.00
2018-09-02T01:44:56.779Z,0.00
2018-09-02T01:46:03.129Z,0.00
2018-09-02T01:47:09.479Z,0.00
2018-09-02T01:48:16.831Z,0.00
2018-09-02T01:49:22.677Z,0.00
2018-09-02T01:50:29.027Z,0.00
2018-09-02T01:51:34.891Z,0.00
2018-09-02T01:52:41.237Z,0.00
2018-09-02T01:53:48.084Z,0.00
2018-09-02T01:54:53.944Z,0.00
2018-09-02T01:56:00.298Z,0.00
2018-09-02T01:57:06.643Z,0.00
2018-09-02T01:58:14.840Z,0.00
2018-09-02T01:59:19.351Z,0.00
2018-09-02T02:00:26.185Z,0.00
2018-09-02T02:01:32.054Z,0.00
2018-09-02T02:02:38.401Z,0.00
2018-09-02T02:03:44.757Z,0.00
2018-09-02T02:04:51.100Z,0.00
2018-09-02T02:05:57.448Z,0.00
2018-09-02T02:07:03.800Z,0.00
2018-09-02T02:08:10.154Z,0.00
2018-09-02T02:09:16.994Z,0.00
2018-09-02T02:10:22.846Z,0.00
2018-09-02T02:11:29.286Z,0.00
2018-09-02T02:12:35.543Z,0.00
2018-09-02T02:13:41.895Z,0.00
2018-09-02T02:14:48.240Z,0.00
2018-09-02T02:15:54.584Z,0.00
2018-09-02T02:17:00.937Z,0.00
2018-09-02T02:18:07.778Z,0.00
2018-09-02T02:19:13.638Z,0.00
2018-09-02T02:20:19.974Z,0.00
2018-09-02T02:21:26.331Z,0.00
2018-09-02T02:22:32.685Z,0.00
2018-09-02T02:23:39.547Z,0.00
2018-09-02T02:24:45.392Z,0.00
2018-09-02T02:25:52.264Z,0.00
2018-09-02T02:26:58.082Z,0.00
2018-09-02T02:28:04.443Z,0.00
2018-09-02T02:29:10.799Z,0.00
2018-09-02T02:30:17.639Z,0.00
2018-09-02T02:31:23.491Z,0.00
2018-09-02T02:32:30.331Z,0.00
2018-09-02T02:33:37.277Z,0.00
2018-09-02T02:34:42.558Z,0.00
2018-09-02T02:35:48.903Z,0.00
2018-09-02T02:36:55.244Z,0.00
2018-09-02T02:38:01.594Z,0.00
2018-09-02T02:39:07.946Z,0.00
2018-09-02T02:40:14.785Z,0.00
2018-09-02T02:41:20.629Z,0.00
2018-09-02T02:42:27.439Z,0.00
2018-09-02T02:43:33.333Z,0.00
2018-09-02T02:44:39.680Z,0.00
2018-09-02T02:45:46.011Z,0.00
2018-09-02T02:46:52.363Z,0.00
2018-09-02T02:47:58.715Z,0.00
2018-09-02T02:49:05.064Z,0.00
2018-09-02T02:50:11.395Z,0.00
2018-09-02T02:51:17.749Z,0.00
2018-09-02T02:52:24.104Z,0.00
2018-09-02T02:53:30.441Z,0.00
2018-09-02T02:54:37.293Z,0.00
2018-09-02T02:55:43.619Z,0.00
2018-09-02T02:56:49.475Z,0.00
2018-09-02T02:57:55.822Z,0.00
2018-09-02T02:59:02.302Z,0.00
2018-09-02T03:00:08.999Z,0.00
2018-09-02T03:01:15.344Z,0.00
2018-09-02T03:02:21.201Z,0.00
2018-09-02T03:03:27.545Z,0.00
2018-09-02T03:04:33.899Z,0.00
2018-09-02T03:05:40.238Z,0.00
2018-09-02T03:06:46.579Z,0.00
2018-09-02T03:07:52.923Z,0.00
2018-09-02T03:08:59.259Z,0.00
2018-09-02T03:10:06.106Z,0.00
2018-09-02T03:11:11.944Z,0.00
2018-09-02T03:12:18.311Z,0.00
2018-09-02T03:13:24.644Z,0.00
2018-09-02T03:14:30.987Z,0.00
2018-09-02T03:15:37.889Z,0.00
2018-09-02T03:16:43.670Z,0.00
2018-09-02T03:17:50.005Z,0.00
2018-09-02T03:18:56.347Z,0.00
2018-09-02T03:20:02.697Z,0.00
2018-09-02T03:21:09.520Z,0.00
2018-09-02T03:22:15.367Z,0.00
2018-09-02T03:23:21.729Z,0.00
2018-09-02T03:24:28.550Z,0.00
2018-09-02T03:25:34.392Z,0.00
2018-09-02T03:26:40.721Z,0.00
2018-09-02T03:27:47.054Z,0.00
2018-09-02T03:28:53.382Z,0.00
2018-09-02T03:29:59.725Z,0.00
2018-09-02T03:31:06.058Z,0.00
2018-09-02T03:32:12.423Z,0.00
2018-09-02T03:33:18.733Z,0.00
2018-09-02T03:34:25.577Z,0.00
2018-09-02T03:35:31.414Z,0.00
2018-09-02T03:36:37.736Z,0.00
2018-09-02T03:37:44.581Z,0.00
2018-09-02T03:38:50.414Z,0.00
2018-09-02T03:39:56.749Z,0.00
2018-09-02T03:41:03.091Z,0.00
2018-09-02T03:42:09.413Z,0.00
2018-09-02T03:43:16.259Z,0.00
2018-09-02T03:44:22.587Z,0.00
2018-09-02T03:45:28.430Z,0.00
2018-09-02T03:46:34.768Z,0.00
2018-09-02T03:47:41.585Z,0.00
2018-09-02T03:48:47.932Z,0.00
2018-09-02T03:49:53.782Z,0.00
2018-09-02T03:51:00.610Z,0.00
2018-09-02T03:52:06.452Z,0.00
2018-09-02T03:53:12.798Z,0.00
2018-09-02T03:54:19.627Z,0.00
2018-09-02T03:55:25.480Z,0.00
2018-09-02T03:56:31.813Z,0.00
2018-09-02T03:57:39.154Z,0.00
2018-09-02T03:58:44.489Z,0.00
2018-09-02T03:59:50.827Z,0.00
2018-09-02T04:00:57.172Z,0.00
2018-09-02T04:02:03.503Z,0.00
2018-09-02T04:03:09.842Z,0.00
2018-09-02T04:04:17.180Z,0.00
2018-09-02T04:05:22.525Z,0.00
2018-09-02T04:06:29.352Z,0.00
2018-09-02T04:07:35.194Z,0.00
2018-09-02T04:08:41.533Z,0.00
2018-09-02T04:09:47.881Z,0.00
2018-09-02T04:10:54.720Z,0.00
2018-09-02T04:12:00.570Z,0.00
2018-09-02T04:13:06.901Z,0.00
2018-09-02T04:14:13.248Z,0.00
2018-09-02T04:15:20.081Z,0.00
2018-09-02T04:16:25.923Z,0.00
2018-09-02T04:17:32.268Z,0.00
2018-09-02T04:18:38.607Z,0.00
2018-09-02T04:19:44.966Z,0.00
2018-09-02T04:20:51.815Z,0.00
2018-09-02T04:21:57.661Z,0.00
2018-09-02T04:23:04.487Z,0.00
2018-09-02T04:24:10.350Z,0.00
2018-09-02T04:25:16.681Z,0.00
2018-09-02T04:26:23.043Z,0.00
2018-09-02T04:27:29.373Z,0.00
2018-09-02T04:28:35.729Z,0.00
2018-09-02T04:29:42.574Z,0.00
2018-09-02T04:30:48.435Z,0.00
2018-09-02T04:31:54.773Z,0.00
2018-09-02T04:33:01.126Z,0.00
2018-09-02T04:34:07.473Z,0.00
2018-09-02T04:35:13.821Z,0.00
2018-09-02T04:36:20.183Z,0.00
2018-09-02T04:37:26.521Z,0.00
2018-09-02T04:38:32.867Z,5.63
2018-09-02T04:39:39.222Z,5.63
2018-09-02T04:40:45.588Z,5.63
2018-09-02T04:41:51.918Z,5.63
2018-09-02T04:42:58.275Z,5.63
2018-09-02T04:44:04.625Z,5.63
2018-09-02T04:45:11.021Z,5.63
2018-09-02T04:46:17.837Z,5.63
2018-09-02T04:47:24.190Z,11.25
2018-09-02T04:48:30.042Z,11.25
2018-09-02T04:49:36.888Z,11.25
2018-09-02T04:50:42.764Z,11.25
2018-09-02T04:51:49.117Z,16.88
2018-09-02T04:52:55.915Z,16.88
2018-09-02T04:54:02.812Z,16.88
2018-09-02T04:55:08.171Z,16.88
2018-09-02T04:56:14.530Z,22.50
2018-09-02T04:57:20.887Z,22.50
2018-09-02T04:58:27.238Z,22.50
2018-09-02T04:59:33.591Z,28.13
2018-09-02T05:00:39.950Z,28.13
2018-09-02T05:01:46.305Z,28.13
2018-09-02T05:02:52.663Z,28.13
2018-09-02T05:04:00.004Z,33.75
2018-09-02T05:05:05.381Z,33.75
2018-09-02T05:06:12.240Z,33.75
2018-09-02T05:07:18.083Z,33.75
2018-09-02T05:08:24.439Z,33.75
2018-09-02T05:09:30.794Z,39.38
2018-09-02T05:10:37.673Z,39.38
2018-09-02T05:11:43.519Z,39.38
2018-09-02T05:12:49.878Z,39.38
2018-09-02T05:13:56.264Z,39.38
2018-09-02T05:15:02.594Z,39.38
2018-09-02T05:16:08.954Z,39.38
2018-09-02T05:17:15.314Z,39.38
2018-09-02T05:18:21.670Z,39.38
2018-09-02T05:19:28.036Z,39.38
2018-09-02T05:20:34.886Z,39.38
2018-09-02T05:21:40.954Z,39.38
2018-09-02T05:22:47.624Z,39.38
2018-09-02T05:23:53.491Z,45.00
2018-09-02T05:25:00.348Z,45.00
2018-09-02T05:26:07.225Z,45.00
2018-09-02T05:27:13.085Z,39.38
2018-09-02T05:28:18.951Z,39.38
2018-09-02T05:29:25.312Z,39.38
2018-09-02T05:30:32.164Z,39.38
2018-09-02T05:31:38.536Z,39.38
2018-09-02T05:32:44.411Z,39.38
2018-09-02T05:33:50.792Z,39.38
2018-09-02T05:34:57.637Z,39.38
2018-09-02T05:36:04.026Z,33.75
2018-09-02T05:37:09.878Z,33.75
2018-09-02T05:38:16.257Z,33.75
2018-09-02T05:39:22.615Z,33.75
2018-09-02T05:40:29.486Z,33.75
2018-09-02T05:41:35.361Z,39.38
2018-09-02T05:42:41.738Z,39.38
2018-09-02T05:43:49.605Z,39.38
2018-09-02T05:44:54.970Z,39.38
2018-09-02T05:46:00.850Z,39.38
2018-09-02T05:47:07.232Z,45.00
2018-09-02T05:48:14.080Z,45.00
2018-09-02T05:49:20.443Z,50.63
2018-09-02T05:50:26.825Z,50.63
2018-09-02T05:51:32.713Z,45.00
2018-09-02T05:52:39.573Z,50.63
2018-09-02T05:53:45.476Z,50.63
2018-09-02T05:54:51.820Z,56.25
2018-09-02T05:55:58.187Z,61.88
2018-09-02T05:57:04.574Z,67.50
2018-09-02T05:58:10.941Z,73.13
2018-09-02T05:59:17.318Z,78.75
2018-09-02T06:00:24.184Z,84.38
2018-09-02T06:01:30.064Z,90.00
2018-09-02T06:02:36.493Z,95.63
2018-09-02T06:03:42.820Z,106.88
2018-09-02T06:04:49.731Z,112.50
2018-09-02T06:05:56.086Z,118.13
2018-09-02T06:07:02.462Z,118.13
2018-09-02T06:08:08.344Z,118.13
2018-09-02T06:09:14.741Z,118.13
2018-09-02T06:10:21.114Z,112.50
2018-09-02T06:11:27.517Z,106.88
2018-09-02T06:12:33.895Z,106.88
2018-09-02T06:13:40.310Z,106.88
2018-09-02T06:14:46.679Z,106.88
2018-09-02T06:15:53.057Z,112.50
2018-09-02T06:16:59.460Z,123.75
2018-09-02T06:18:06.342Z,135.00
2018-09-02T06:19:12.249Z,146.25
2018-09-02T06:20:18.654Z,157.50
2018-09-02T06:21:25.042Z,174.38
2018-09-02T06:22:31.929Z,191.25
2018-09-02T06:23:38.345Z,213.75
2018-09-02T06:24:44.304Z,230.63
2018-09-02T06:25:50.658Z,225.00
2018-09-02T06:26:57.063Z,219.38
2018-09-02T06:28:03.475Z,208.13
2018-09-02T06:29:09.879Z,202.50
2018-09-02T06:30:16.543Z,196.88
2018-09-02T06:31:22.712Z,202.50
2018-09-02T06:32:29.149Z,196.88
2018-09-02T06:33:35.544Z,185.63
2018-09-02T06:34:42.458Z,180.00
2018-09-02T06:35:48.371Z,185.63
2018-09-02T06:36:54.833Z,191.25
2018-09-02T06:38:01.208Z,202.50
2018-09-02T06:39:07.634Z,213.75
2018-09-02T06:40:14.050Z,213.75
2018-09-02T06:41:20.481Z,219.38
2018-09-02T06:42:26.912Z,225.00
2018-09-02T06:43:33.311Z,225.00
2018-09-02T06:44:39.750Z,213.75
2018-09-02T06:45:46.316Z,202.50
2018-09-02T06:46:52.647Z,196.88
2018-09-02T06:47:59.018Z,202.50
2018-09-02T06:49:05.440Z,213.75
2018-09-02T06:50:11.859Z,241.88
2018-09-02T06:51:18.295Z,264.38
2018-09-02T06:52:24.737Z,286.88
2018-09-02T06:53:31.661Z,286.88
2018-09-02T06:54:38.098Z,298.13
2018-09-02T06:55:44.045Z,303.75
2018-09-02T06:56:50.988Z,315.00
2018-09-02T06:57:56.975Z,337.50
2018-09-02T06:59:04.838Z,331.88
2018-09-02T07:00:09.839Z,309.38
2018-09-02T07:01:16.286Z,303.75
2018-09-02T07:02:22.748Z,292.50
2018-09-02T07:03:29.679Z,292.50
2018-09-02T07:04:36.122Z,315.00
2018-09-02T07:05:42.088Z,326.25
2018-09-02T07:06:48.591Z,348.75
2018-09-02T07:07:55.009Z,354.38
2018-09-02T07:09:01.959Z,354.38
2018-09-02T07:10:08.427Z,348.75
2018-09-02T07:11:14.384Z,348.75
2018-09-02T07:12:21.335Z,343.13
2018-09-02T07:13:27.304Z,331.88
2018-09-02T07:14:33.770Z,320.63
2018-09-02T07:15:40.253Z,315.00
2018-09-02T07:16:46.689Z,303.75
2018-09-02T07:17:53.661Z,292.50
2018-09-02T07:18:59.623Z,292.50
2018-09-02T07:20:06.154Z,281.25
2018-09-02T07:21:12.549Z,281.25
2018-09-02T07:22:20.032Z,286.88
2018-09-02T07:23:25.502Z,298.13
2018-09-02T07:24:32.477Z,320.63
2018-09-02T07:25:38.436Z,326.25
2018-09-02T07:26:45.366Z,337.50
2018-09-02T07:27:51.895Z,365.63
2018-09-02T07:28:58.369Z,410.63
2018-09-02T07:30:04.370Z,427.50
2018-09-02T07:31:10.856Z,405.00
2018-09-02T07:32:17.361Z,399.38
2018-09-02T07:33:23.859Z,405.00
2018-09-02T07:34:30.350Z,405.00
2018-09-02T07:35:36.854Z,393.75
2018-09-02T07:36:44.351Z,371.25
2018-09-02T07:37:49.863Z,371.25
2018-09-02T07:38:56.853Z,376.88
2018-09-02T07:40:02.867Z,399.38
2018-09-02T07:41:09.375Z,421.88
2018-09-02T07:42:15.890Z,427.50
2018-09-02T07:43:22.390Z,433.13
2018-09-02T07:44:28.905Z,444.38
2018-09-02T07:45:35.414Z,438.75
2018-09-02T07:46:41.932Z,399.38
2018-09-02T07:47:48.443Z,399.38
2018-09-02T07:48:55.947Z,382.50
2018-09-02T07:50:01.457Z,371.25
2018-09-02T07:51:08.977Z,320.63
2018-09-02T07:52:15.478Z,309.38
2018-09-02T07:53:21.497Z,303.75
2018-09-02T07:54:27.506Z,315.00
2018-09-02T07:55:34.522Z,331.88
2018-09-02T07:56:40.489Z,320.63
2018-09-02T07:57:47.519Z,320.63
2018-09-02T07:58:53.514Z,315.00
2018-09-02T08:00:00.019Z,309.38
2018-09-02T08:01:06.516Z,315.00
2018-09-02T08:02:13.016Z,326.25
2018-09-02T08:03:19.527Z,348.75
2018-09-02T08:04:26.020Z,393.75
2018-09-02T08:05:32.548Z,450.00
2018-09-02T08:06:39.061Z,427.50
2018-09-02T08:07:45.596Z,388.13
2018-09-02T08:08:52.114Z,376.88
2018-09-02T08:09:58.649Z,365.63
2018-09-02T08:11:05.146Z,354.38
2018-09-02T08:12:11.711Z,337.50
2018-09-02T08:13:18.198Z,337.50
2018-09-02T08:14:24.718Z,331.88
2018-09-02T08:15:31.764Z,320.63
2018-09-02T08:16:38.283Z,309.38
2018-09-02T08:17:44.804Z,298.13
2018-09-02T08:18:50.842Z,303.75
2018-09-02T08:19:57.963Z,303.75
2018-09-02T08:21:03.884Z,303.75
2018-09-02T08:22:10.424Z,326.25
2018-09-02T08:23:16.947Z,320.63
2018-09-02T08:24:23.461Z,309.38
2018-09-02T08:25:30.489Z,309.38
2018-09-02T08:26:37.032Z,303.75
2018-09-02T08:27:43.061Z,286.88
2018-09-02T08:28:49.596Z,258.75
2018-09-02T08:29:56.121Z,230.63
2018-09-02T08:31:02.642Z,225.00
2018-09-02T08:32:09.284Z,230.63
2018-09-02T08:33:15.739Z,241.88
2018-09-02T08:34:22.234Z,241.88
2018-09-02T08:35:28.758Z,236.25
2018-09-02T08:36:35.314Z,241.88
2018-09-02T08:37:41.841Z,247.50
2018-09-02T08:38:48.438Z,264.38
2018-09-02T08:39:54.905Z,281.25
2018-09-02T08:41:01.448Z,315.00
2018-09-02T08:42:08.081Z,354.38
2018-09-02T08:43:14.532Z,388.13
2018-09-02T08:44:21.114Z,399.38
2018-09-02T08:45:27.666Z,427.50
2018-09-02T08:46:34.219Z,461.25
2018-09-02T08:47:41.315Z,506.25
2018-09-02T08:48:47.393Z,523.13
2018-09-02T08:49:54.472Z,551.25
2018-09-02T08:51:00.611Z,590.63
2018-09-02T08:52:07.295Z,556.88
2018-09-02T08:53:13.820Z,596.25
2018-09-02T08:54:20.450Z,590.63
2018-09-02T08:55:27.089Z,579.38
2018-09-02T08:56:33.680Z,545.63
2018-09-02T08:57:40.826Z,551.25
2018-09-02T08:58:46.947Z,517.50
2018-09-02T08:59:53.572Z,489.38
2018-09-02T09:01:00.224Z,438.75
2018-09-02T09:02:07.343Z,421.88
2018-09-02T09:03:13.485Z,433.13
2018-09-02T09:04:20.616Z,472.50
2018-09-02T09:05:27.277Z,511.88
2018-09-02T09:06:33.406Z,551.25
2018-09-02T09:07:40.213Z,568.13
2018-09-02T09:08:47.488Z,646.88
2018-09-02T09:09:53.361Z,630.00
2018-09-02T09:11:00.027Z,646.88
2018-09-02T09:12:07.296Z,641.25
2018-09-02T09:13:13.569Z,624.38
2018-09-02T09:14:20.014Z,579.38
2018-09-02T09:15:26.698Z,585.00
2018-09-02T09:16:33.392Z,613.13
2018-09-02T09:17:40.026Z,691.88
2018-09-02T09:18:46.939Z,703.13
2018-09-02T09:19:53.423Z,669.38
2018-09-02T09:21:00.298Z,680.63
2018-09-02T09:22:06.836Z,686.25
2018-09-02T09:23:13.942Z,708.75
2018-09-02T09:24:20.148Z,708.75
2018-09-02T09:25:26.853Z,697.50
2018-09-02T09:26:34.525Z,725.63
2018-09-02T09:27:40.752Z,810.00
2018-09-02T09:28:47.514Z,900.00
2018-09-02T09:29:55.180Z,900.00
2018-09-02T09:31:00.942Z,838.13
2018-09-02T09:32:07.288Z,838.13
2018-09-02T09:33:14.027Z,832.50
2018-09-02T09:34:20.669Z,821.25
2018-09-02T09:35:27.940Z,798.75
2018-09-02T09:36:34.151Z,804.38
2018-09-02T09:37:40.938Z,787.50
2018-09-02T09:38:47.986Z,742.50
2018-09-02T09:39:54.900Z,675.00
2018-09-02T09:41:01.247Z,596.25
2018-09-02T09:42:08.414Z,517.50
2018-09-02T09:43:14.628Z,455.63
2018-09-02T09:44:21.320Z,405.00
2018-09-02T09:45:28.021Z,360.00
2018-09-02T09:46:35.285Z,331.88
2018-09-02T09:47:41.452Z,303.75
2018-09-02T09:48:48.588Z,292.50
2018-09-02T09:49:55.217Z,303.75
2018-09-02T09:51:01.384Z,309.38
2018-09-02T09:52:08.041Z,337.50
2018-09-02T09:53:14.702Z,376.88
2018-09-02T09:54:21.353Z,416.25
2018-09-02T09:55:28.049Z,410.63
2018-09-02T09:56:35.152Z,371.25
2018-09-02T09:57:41.303Z,354.38
2018-09-02T09:58:48.449Z,343.13
2018-09-02T09:59:54.582Z,326.25
2018-09-02T10:01:01.236Z,315.00
2018-09-02T10:02:07.884Z,309.38
2018-09-02T10:03:14.526Z,286.88
2018-09-02T10:04:21.138Z,281.25
2018-09-02T10:06:34.378Z,286.88
2018-09-02T10:07:41.495Z,270.00
2018-09-02T10:08:47.715Z,264.38
2018-09-02T10:09:54.635Z,281.25
2018-09-02T10:11:00.884Z,303.75
2018-09-02T10:12:07.979Z,315.00
2018-09-02T10:13:14.102Z,320.63
2018-09-02T10:14:20.717Z,365.63
2018-09-02T10:15:27.665Z,393.75
2018-09-02T10:16:33.921Z,388.13
2018-09-02T10:17:41.036Z,405.00
2018-09-02T10:18:48.205Z,427.50
2018-09-02T10:19:53.774Z,438.75
2018-09-02T10:21:00.599Z,444.38
2018-09-02T10:22:07.022Z,461.25
2018-09-02T10:23:13.659Z,466.88
2018-09-02T10:24:20.298Z,455.63
2018-09-02T10:25:26.907Z,444.38
2018-09-02T10:26:33.546Z,421.88
2018-09-02T10:27:40.282Z,416.25
2018-09-02T10:28:46.796Z,399.38
2018-09-02T10:29:53.410Z,393.75
2018-09-02T10:31:00.486Z,399.38
2018-09-02T10:32:06.674Z,405.00
2018-09-02T10:33:13.809Z,410.63
2018-09-02T10:34:20.431Z,410.63
2018-09-02T10:35:26.562Z,399.38
2018-09-02T10:36:34.170Z,405.00
2018-09-02T10:37:39.807Z,393.75
2018-09-02T10:38:46.940Z,337.50
2018-09-02T10:39:53.048Z,292.50
2018-09-02T10:40:59.716Z,270.00
2018-09-02T10:42:06.288Z,253.13
2018-09-02T10:43:12.893Z,230.63
2018-09-02T10:44:19.515Z,225.00
2018-09-02T10:45:26.120Z,225.00
2018-09-02T10:46:32.727Z,230.63
2018-09-02T10:47:39.816Z,253.13
2018-09-02T10:48:45.921Z,253.13
2018-09-02T10:49:52.534Z,258.75
2018-09-02T10:50:59.131Z,270.00
2018-09-02T10:52:05.726Z,281.25
2018-09-02T10:53:12.333Z,275.63
2018-09-02T10:54:19.428Z,303.75
2018-09-02T10:55:26.059Z,343.13
2018-09-02T10:56:32.149Z,393.75
2018-09-02T10:57:39.286Z,450.00
2018-09-02T10:58:45.363Z,511.88
2018-09-02T10:59:52.478Z,495.00
2018-09-02T11:00:58.594Z,444.38
2018-09-02T11:02:05.228Z,455.63
2018-09-02T11:03:11.851Z,455.63
2018-09-02T11:04:18.998Z,438.75
2018-09-02T11:05:25.125Z,438.75
2018-09-02T11:06:32.266Z,382.50
2018-09-02T11:07:38.450Z,360.00
2018-09-02T11:08:45.097Z,365.63
2018-09-02T11:09:51.650Z,388.13
2018-09-02T11:10:58.273Z,416.25
2018-09-02T11:12:05.205Z,427.50
2018-09-02T11:13:11.568Z,410.63
2018-09-02T11:14:18.655Z,399.38
2018-09-02T11:15:24.811Z,365.63
2018-09-02T11:16:31.434Z,337.50
2018-09-02T11:17:38.059Z,326.25
2018-09-02T11:18:44.697Z,331.88
2018-09-02T11:19:51.818Z,343.13
2018-09-02T11:20:57.947Z,376.88
2018-09-02T11:22:04.577Z,399.38
2018-09-02T11:23:11.201Z,388.13
2018-09-02T11:24:17.844Z,416.25
2018-09-02T11:25:24.472Z,433.13
2018-09-02T11:26:31.102Z,444.38
2018-09-02T11:27:37.745Z,433.13
2018-09-02T11:28:44.384Z,455.63
2018-09-02T11:29:51.033Z,466.88
2018-09-02T11:30:57.684Z,489.38
2018-09-02T11:32:04.351Z,545.63
2018-09-02T11:33:11.005Z,596.25
2018-09-02T11:34:17.681Z,635.63
2018-09-02T11:35:24.344Z,652.50
2018-09-02T11:36:31.047Z,630.00
2018-09-02T11:37:37.743Z,607.50
2018-09-02T11:38:44.431Z,596.25
2018-09-02T11:39:51.628Z,630.00
2018-09-02T11:40:57.825Z,624.38
2018-09-02T11:42:04.527Z,534.38
2018-09-02T11:43:11.230Z,500.63
2018-09-02T11:44:17.951Z,483.75
2018-09-02T11:45:24.627Z,500.63
2018-09-02T11:46:31.326Z,506.25
2018-09-02T11:47:38.507Z,511.88
2018-09-02T11:48:44.691Z,534.38
2018-09-02T11:49:51.397Z,528.75
2018-09-02T11:50:58.090Z,528.75
2018-09-02T11:52:04.783Z,545.63
2018-09-02T11:53:11.489Z,618.75
2018-09-02T11:54:18.200Z,697.50
2018-09-02T11:55:24.920Z,652.50
2018-09-02T11:56:32.139Z,652.50
2018-09-02T11:57:38.879Z,641.25
2018-09-02T11:58:45.607Z,658.13
2018-09-02T11:59:51.853Z,630.00
2018-09-02T12:00:58.579Z,585.00
2018-09-02T12:02:05.506Z,540.00
2018-09-02T12:03:12.053Z,489.38
2018-09-02T12:04:18.765Z,455.63
2018-09-02T12:05:25.991Z,433.13
2018-09-02T12:06:32.782Z,450.00
2018-09-02T12:07:38.925Z,478.13
2018-09-02T12:08:45.624Z,472.50
2018-09-02T12:09:52.344Z,399.38
2018-09-02T12:10:59.018Z,337.50
2018-09-02T12:12:05.718Z,309.38
2018-09-02T12:13:13.003Z,309.38
2018-09-02T12:14:19.177Z,315.00
2018-09-02T12:15:25.764Z,326.25
2018-09-02T12:16:32.438Z,337.50
2018-09-02T12:17:39.250Z,360.00
2018-09-02T12:18:45.778Z,410.63
2018-09-02T12:19:52.434Z,444.38
2018-09-02T12:20:59.120Z,500.63
2018-09-02T12:22:06.285Z,585.00
2018-09-02T12:23:12.479Z,630.00
2018-09-02T12:24:19.157Z,663.75
2018-09-02T12:25:26.019Z,703.13
2018-09-02T12:26:32.565Z,736.88
2018-09-02T12:27:39.306Z,748.13
2018-09-02T12:28:46.008Z,770.63
2018-09-02T12:29:52.750Z,804.38
2018-09-02T12:30:59.943Z,826.88
2018-09-02T12:32:06.221Z,821.25
2018-09-02T12:33:12.980Z,855.00
2018-09-02T12:34:19.741Z,866.25
2018-09-02T12:35:26.500Z,855.00
2018-09-02T12:36:33.771Z,843.75
2018-09-02T12:37:40.034Z,810.00
2018-09-02T12:38:46.825Z,770.63
2018-09-02T12:39:53.656Z,720.00
2018-09-02T12:41:00.894Z,675.00
2018-09-02T12:42:07.741Z,573.75
2018-09-02T12:43:14.473Z,540.00
2018-09-02T12:44:20.738Z,545.63
2018-09-02T12:45:27.490Z,466.88
2018-09-02T12:46:34.228Z,405.00
2018-09-02T12:47:41.471Z,365.63
2018-09-02T12:48:47.704Z,365.63
2018-09-02T12:49:54.402Z,376.88
2018-09-02T12:51:01.085Z,410.63
2018-09-02T12:52:07.769Z,410.63
2018-09-02T12:53:14.440Z,421.88
2018-09-02T12:54:21.634Z,399.38
2018-09-02T12:55:28.388Z,410.63
2018-09-02T12:56:34.459Z,444.38
2018-09-02T12:57:41.627Z,478.13
2018-09-02T12:58:47.767Z,517.50
2018-09-02T12:59:54.645Z,568.13
2018-09-02T13:01:02.100Z,618.75
2018-09-02T13:02:07.776Z,646.88
2018-09-02T13:03:14.439Z,686.25
2018-09-02T13:04:21.129Z,663.75
2018-09-02T13:05:27.823Z,607.50
2018-09-02T13:06:35.006Z,568.13
2018-09-02T13:07:41.199Z,568.13
2018-09-02T13:08:47.891Z,601.88
2018-09-02T13:09:54.576Z,641.25
2018-09-02T13:11:01.268Z,663.75
2018-09-02T13:12:07.966Z,680.63
2018-09-02T13:13:14.648Z,708.75
2018-09-02T13:14:21.347Z,748.13
2018-09-02T13:15:28.568Z,776.25
2018-09-02T13:16:35.238Z,793.13
2018-09-02T13:17:41.439Z,810.00
2018-09-02T13:18:48.657Z,804.38
2018-09-02T13:19:54.892Z,804.38
2018-09-02T13:21:01.586Z,781.88
2018-09-02T13:22:08.269Z,725.63
2018-09-02T13:23:15.518Z,658.13
2018-09-02T13:24:21.697Z,579.38
2018-09-02T13:25:28.390Z,523.13
2018-09-02T13:26:35.089Z,511.88
2018-09-02T13:27:41.781Z,545.63
2018-09-02T13:28:48.478Z,596.25
2018-09-02T13:29:55.154Z,658.13
2018-09-02T13:31:02.341Z,635.63
2018-09-02T13:32:08.522Z,517.50
2018-09-02T13:33:16.273Z,444.38
2018-09-02T13:34:21.878Z,360.00
2018-09-02T13:35:28.556Z,298.13
2018-09-02T13:36:35.202Z,275.63
2018-09-02T13:37:41.859Z,270.00
2018-09-02T13:38:48.501Z,275.63
2018-09-02T13:39:55.144Z,270.00
2018-09-02T13:41:01.800Z,281.25
2018-09-02T13:42:08.399Z,292.50
2018-09-02T13:43:16.079Z,275.63
2018-09-02T13:44:21.659Z,241.88
2018-09-02T13:45:28.281Z,219.38
2018-09-02T13:46:35.394Z,191.25
2018-09-02T13:47:41.498Z,163.13
2018-09-02T13:48:48.107Z,146.25
2018-09-02T13:49:54.708Z,123.75
2018-09-02T13:51:01.293Z,112.50
2018-09-02T13:52:08.370Z,123.75
2018-09-02T13:53:14.471Z,140.63
2018-09-02T13:54:21.547Z,151.88
2018-09-02T13:55:28.128Z,168.75
2018-09-02T13:56:34.213Z,180.00
2018-09-02T13:57:40.784Z,174.38
2018-09-02T13:58:47.888Z,191.25
2018-09-02T13:59:53.939Z,213.75
2018-09-02T14:01:00.572Z,230.63
2018-09-02T14:02:07.115Z,241.88
2018-09-02T14:03:14.276Z,258.75
2018-09-02T14:04:20.291Z,281.25
2018-09-02T14:05:27.368Z,315.00
2018-09-02T14:06:33.475Z,343.13
2018-09-02T14:07:40.096Z,388.13
2018-09-02T14:08:46.717Z,382.50
2018-09-02T14:09:53.269Z,388.13
2018-09-02T14:10:59.875Z,416.25